sensor_id;sensor_type;location;lat;lon;timestamp;P1;durP1;ratioP1;P2;durP2;ratioP2
26391;SDS011;14572;43.120;1.178;2023-02-26T07:08:53;15.13;;;7.60;;
26391;SDS011;14572;43.120;1.178;2023-02-26T07:11:23;12.55;;;5.78;;
26391;SDS011;14572;43.120;1.178;2023-02-26T07:13:50;14.30;;;6.65;;
26391;SDS011;14572;43.120;1.178;2023-02-26T07:16:17;14.07;;;6.90;;
26391;SDS011;14572;43.120;1.178;2023-02-26T07:18:44;14.98;;;6.05;;
26391;SDS011;14572;43.120;1.178;2023-02-26T07:21:11;13.85;;;6.18;;
26391;SDS011;14572;43.120;1.178;2023-02-26T07:23:38;11.55;;;5.70;;
26391;SDS011;14572;43.120;1.178;2023-02-26T07:26:07;11.52;;;5.38;;
26391;SDS011;14572;43.120;1.178;2023-02-26T07:28:35;13.50;;;6.82;;
26391;SDS011;14572;43.120;1.178;2023-02-26T07:31:02;14.68;;;6.80;;
26391;SDS011;14572;43.120;1.178;2023-02-26T07:33:29;14.52;;;7.82;;
26391;SDS011;14572;43.120;1.178;2023-02-26T07:35:59;18.42;;;9.60;;
26391;SDS011;14572;43.120;1.178;2023-02-26T07:38:26;13.30;;;6.45;;
26391;SDS011;14572;43.120;1.178;2023-02-26T07:40:53;15.32;;;5.15;;
26391;SDS011;14572;43.120;1.178;2023-02-26T07:43:22;10.73;;;5.22;;
26391;SDS011;14572;43.120;1.178;2023-02-26T07:45:50;14.80;;;6.85;;
26391;SDS011;14572;43.120;1.178;2023-02-26T07:48:17;14.27;;;6.90;;
26391;SDS011;14572;43.120;1.178;2023-02-26T07:50:45;13.18;;;5.18;;
26391;SDS011;14572;43.120;1.178;2023-02-26T07:53:12;13.95;;;9.20;;
26391;SDS011;14572;43.120;1.178;2023-02-26T07:55:39;16.05;;;6.22;;
26391;SDS011;14572;43.120;1.178;2023-02-26T07:58:06;12.10;;;5.00;;
26391;SDS011;14572;43.120;1.178;2023-02-26T08:00:35;10.98;;;5.13;;
26391;SDS011;14572;43.120;1.178;2023-02-26T08:03:02;10.23;;;5.60;;
26391;SDS011;14572;43.120;1.178;2023-02-26T08:05:29;16.35;;;5.82;;
26391;SDS011;14572;43.120;1.178;2023-02-26T08:07:56;15.63;;;8.13;;
26391;SDS011;14572;43.120;1.178;2023-02-26T08:10:26;18.05;;;5.40;;
26391;SDS011;14572;43.120;1.178;2023-02-26T08:12:53;13.35;;;5.47;;
26391;SDS011;14572;43.120;1.178;2023-02-26T08:15:20;12.93;;;5.28;;
26391;SDS011;14572;43.120;1.178;2023-02-26T08:17:50;11.82;;;5.60;;
26391;SDS011;14572;43.120;1.178;2023-02-26T08:20:19;9.52;;;5.80;;
26391;SDS011;14572;43.120;1.178;2023-02-26T08:22:47;13.15;;;5.53;;
26391;SDS011;14572;43.120;1.178;2023-02-26T08:25:14;10.18;;;5.60;;
26391;SDS011;14572;43.120;1.178;2023-02-26T08:27:41;28.85;;;11.98;;
26391;SDS011;14572;43.120;1.178;2023-02-26T08:30:09;11.82;;;5.95;;
26391;SDS011;14572;43.120;1.178;2023-02-26T08:32:37;11.98;;;5.05;;
26391;SDS011;14572;43.120;1.178;2023-02-26T08:35:08;17.17;;;10.00;;
26391;SDS011;14572;43.120;1.178;2023-02-26T08:37:35;16.95;;;8.35;;
26391;SDS011;14572;43.120;1.178;2023-02-26T08:40:03;18.40;;;9.02;;
26391;SDS011;14572;43.120;1.178;2023-02-26T08:42:31;15.63;;;5.63;;
26391;SDS011;14572;43.120;1.178;2023-02-26T08:44:58;13.68;;;7.03;;
26391;SDS011;14572;43.120;1.178;2023-02-26T08:47:25;13.25;;;6.15;;
26391;SDS011;14572;43.120;1.178;2023-02-26T08:49:53;9.65;;;4.78;;
26391;SDS011;14572;43.120;1.178;2023-02-26T08:52:22;8.90;;;4.47;;
26391;SDS011;14572;43.120;1.178;2023-02-26T08:54:49;8.73;;;4.28;;
26391;SDS011;14572;43.120;1.178;2023-02-26T08:57:16;10.52;;;5.05;;
26391;SDS011;14572;43.120;1.178;2023-02-26T08:59:43;11.63;;;5.07;;
26391;SDS011;14572;43.120;1.178;2023-02-26T09:02:11;10.95;;;4.88;;
26391;SDS011;14572;43.120;1.178;2023-02-26T09:04:38;10.27;;;4.88;;
26391;SDS011;14572;43.120;1.178;2023-02-26T09:07:05;12.30;;;5.00;;
26391;SDS011;14572;43.120;1.178;2023-02-26T09:09:34;8.88;;;4.70;;
26391;SDS011;14572;43.120;1.178;2023-02-26T09:12:01;10.18;;;4.53;;
26391;SDS011;14572;43.120;1.178;2023-02-26T09:14:28;8.77;;;4.55;;
26391;SDS011;14572;43.120;1.178;2023-02-26T09:16:55;9.70;;;3.75;;
26391;SDS011;14572;43.120;1.178;2023-02-26T09:19:23;8.50;;;4.13;;
26391;SDS011;14572;43.120;1.178;2023-02-26T09:21:51;21.73;;;17.30;;
26391;SDS011;14572;43.120;1.178;2023-02-26T09:24:18;20.45;;;13.07;;
26391;SDS011;14572;43.120;1.178;2023-02-26T09:26:47;9.90;;;5.03;;
26391;SDS011;14572;43.120;1.178;2023-02-26T09:29:14;8.63;;;4.13;;
26391;SDS011;14572;43.120;1.178;2023-02-26T09:31:41;12.18;;;4.95;;
26391;SDS011;14572;43.120;1.178;2023-02-26T09:34:08;11.25;;;3.83;;
26391;SDS011;14572;43.120;1.178;2023-02-26T09:36:36;7.53;;;3.45;;
26391;SDS011;14572;43.120;1.178;2023-02-26T09:39:04;11.00;;;4.57;;
26391;SDS011;14572;43.120;1.178;2023-02-26T09:41:33;9.52;;;3.83;;
26391;SDS011;14572;43.120;1.178;2023-02-26T09:44:06;8.27;;;4.90;;
26391;SDS011;14572;43.120;1.178;2023-02-26T09:46:38;6.95;;;3.35;;
26391;SDS011;14572;43.120;1.178;2023-02-26T09:49:14;9.30;;;3.72;;
26391;SDS011;14572;43.120;1.178;2023-02-26T09:51:54;8.63;;;3.60;;
26391;SDS011;14572;43.120;1.178;2023-02-26T09:54:24;9.57;;;3.80;;
26391;SDS011;14572;43.120;1.178;2023-02-26T09:56:55;10.50;;;3.38;;
26391;SDS011;14572;43.120;1.178;2023-02-26T09:59:25;7.00;;;3.08;;
26391;SDS011;14572;43.120;1.178;2023-02-26T10:01:55;9.35;;;3.13;;
26391;SDS011;14572;43.120;1.178;2023-02-26T10:04:26;6.28;;;3.17;;
26391;SDS011;14572;43.120;1.178;2023-02-26T10:07:07;11.48;;;4.22;;
26391;SDS011;14572;43.120;1.178;2023-02-26T10:09:44;17.00;;;4.30;;
26391;SDS011;14572;43.120;1.178;2023-02-26T10:12:19;14.07;;;4.35;;
26391;SDS011;14572;43.120;1.178;2023-02-26T10:14:50;14.43;;;5.22;;
26391;SDS011;14572;43.120;1.178;2023-02-26T10:17:21;6.55;;;3.88;;
26391;SDS011;14572;43.120;1.178;2023-02-26T10:19:51;7.57;;;3.15;;
26391;SDS011;14572;43.120;1.178;2023-02-26T10:22:23;9.75;;;3.33;;
26391;SDS011;14572;43.120;1.178;2023-02-26T10:24:54;9.55;;;3.20;;
26391;SDS011;14572;43.120;1.178;2023-02-26T10:27:27;10.90;;;2.95;;
26391;SDS011;14572;43.120;1.178;2023-02-26T10:30:06;9.85;;;3.22;;
26391;SDS011;14572;43.120;1.178;2023-02-26T10:32:40;10.70;;;3.08;;
26391;SDS011;14572;43.120;1.178;2023-02-26T10:35:12;13.65;;;9.27;;
26391;SDS011;14572;43.120;1.178;2023-02-26T10:37:43;8.38;;;3.20;;
26391;SDS011;14572;43.120;1.178;2023-02-26T10:40:15;8.98;;;3.35;;
26391;SDS011;14572;43.120;1.178;2023-02-26T10:42:45;9.82;;;3.03;;
26391;SDS011;14572;43.120;1.178;2023-02-26T10:45:21;9.25;;;2.85;;
26391;SDS011;14572;43.120;1.178;2023-02-26T10:47:57;5.30;;;2.80;;
26391;SDS011;14572;43.120;1.178;2023-02-26T10:50:44;9.23;;;2.60;;
26391;SDS011;14572;43.120;1.178;2023-02-26T10:53:13;9.10;;;2.60;;
26391;SDS011;14572;43.120;1.178;2023-02-26T10:55:41;6.82;;;2.40;;
26391;SDS011;14572;43.120;1.178;2023-02-26T10:58:11;8.50;;;3.03;;
26391;SDS011;14572;43.120;1.178;2023-02-26T11:00:42;5.07;;;2.53;;
26391;SDS011;14572;43.120;1.178;2023-02-26T11:03:12;4.78;;;2.35;;
26391;SDS011;14572;43.120;1.178;2023-02-26T11:05:41;7.40;;;2.80;;
26391;SDS011;14572;43.120;1.178;2023-02-26T11:08:10;9.70;;;2.95;;
26391;SDS011;14572;43.120;1.178;2023-02-26T11:10:46;6.45;;;2.20;;
26391;SDS011;14572;43.120;1.178;2023-02-26T11:13:16;6.55;;;2.60;;
26391;SDS011;14572;43.120;1.178;2023-02-26T11:15:46;9.20;;;2.40;;
26391;SDS011;14572;43.120;1.178;2023-02-26T11:18:16;7.63;;;2.40;;
26391;SDS011;14572;43.120;1.178;2023-02-26T11:20:45;7.30;;;3.28;;
26391;SDS011;14572;43.120;1.178;2023-02-26T11:23:13;18.88;;;6.70;;
26391;SDS011;14572;43.120;1.178;2023-02-26T11:25:44;37.55;;;16.20;;
26391;SDS011;14572;43.120;1.178;2023-02-26T11:28:18;21.23;;;10.07;;
26391;SDS011;14572;43.120;1.178;2023-02-26T11:30:48;7.03;;;3.20;;
26391;SDS011;14572;43.120;1.178;2023-02-26T11:33:20;6.32;;;3.00;;
26391;SDS011;14572;43.120;1.178;2023-02-26T11:35:49;9.05;;;2.72;;
26391;SDS011;14572;43.120;1.178;2023-02-26T11:38:18;8.80;;;2.67;;
26391;SDS011;14572;43.120;1.178;2023-02-26T11:40:48;8.63;;;2.67;;
26391;SDS011;14572;43.120;1.178;2023-02-26T11:43:18;7.90;;;2.75;;
26391;SDS011;14572;43.120;1.178;2023-02-26T11:45:47;5.80;;;3.00;;
26391;SDS011;14572;43.120;1.178;2023-02-26T11:48:19;13.43;;;6.93;;
26391;SDS011;14572;43.120;1.178;2023-02-26T11:50:48;8.55;;;3.30;;
26391;SDS011;14572;43.120;1.178;2023-02-26T11:53:19;11.48;;;4.65;;
26391;SDS011;14572;43.120;1.178;2023-02-26T11:55:50;6.30;;;2.78;;
26391;SDS011;14572;43.120;1.178;2023-02-26T11:58:21;7.20;;;2.63;;
26391;SDS011;14572;43.120;1.178;2023-02-26T12:00:51;7.40;;;2.50;;
26391;SDS011;14572;43.120;1.178;2023-02-26T12:03:20;9.68;;;3.90;;
26391;SDS011;14572;43.120;1.178;2023-02-26T12:05:48;6.93;;;3.03;;
26391;SDS011;14572;43.120;1.178;2023-02-26T12:08:19;9.13;;;3.17;;
26391;SDS011;14572;43.120;1.178;2023-02-26T12:10:51;6.78;;;3.28;;
26391;SDS011;14572;43.120;1.178;2023-02-26T12:13:29;9.15;;;3.45;;
26391;SDS011;14572;43.120;1.178;2023-02-26T12:16:01;8.38;;;2.75;;
26391;SDS011;14572;43.120;1.178;2023-02-26T12:18:41;11.80;;;2.60;;
26391;SDS011;14572;43.120;1.178;2023-02-26T12:21:23;9.35;;;2.90;;
26391;SDS011;14572;43.120;1.178;2023-02-26T12:24:11;5.60;;;2.60;;
26391;SDS011;14572;43.120;1.178;2023-02-26T12:26:49;9.77;;;2.58;;
26391;SDS011;14572;43.120;1.178;2023-02-26T12:29:27;5.75;;;2.60;;
26391;SDS011;14572;43.120;1.178;2023-02-26T12:35:27;6.43;;;2.63;;
26391;SDS011;14572;43.120;1.178;2023-02-26T12:38:12;8.95;;;2.30;;
26391;SDS011;14572;43.120;1.178;2023-02-26T12:40:49;7.72;;;2.45;;
26391;SDS011;14572;43.120;1.178;2023-02-26T12:43:26;6.78;;;2.40;;
26391;SDS011;14572;43.120;1.178;2023-02-26T12:46:01;7.65;;;2.72;;
26391;SDS011;14572;43.120;1.178;2023-02-26T12:48:41;10.18;;;2.80;;
26391;SDS011;14572;43.120;1.178;2023-02-26T12:51:28;7.85;;;2.38;;
26391;SDS011;14572;43.120;1.178;2023-02-26T12:54:09;7.15;;;2.30;;
26391;SDS011;14572;43.120;1.178;2023-02-26T13:02:53;7.68;;;2.58;;
26391;SDS011;14572;43.120;1.178;2023-02-26T13:05:51;3.78;;;2.33;;
26391;SDS011;14572;43.120;1.178;2023-02-26T13:08:33;5.97;;;2.58;;
26391;SDS011;14572;43.120;1.178;2023-02-26T13:11:07;6.00;;;2.80;;
26391;SDS011;14572;43.120;1.178;2023-02-26T13:13:46;6.88;;;2.50;;
26391;SDS011;14572;43.120;1.178;2023-02-26T13:16:31;9.15;;;2.85;;
26391;SDS011;14572;43.120;1.178;2023-02-26T13:19:05;4.78;;;2.22;;
26391;SDS011;14572;43.120;1.178;2023-02-26T13:21:38;9.63;;;2.47;;
26391;SDS011;14572;43.120;1.178;2023-02-26T13:24:09;10.35;;;2.45;;
26391;SDS011;14572;43.120;1.178;2023-02-26T13:26:40;8.90;;;3.53;;
26391;SDS011;14572;43.120;1.178;2023-02-26T13:29:11;8.85;;;3.10;;
26391;SDS011;14572;43.120;1.178;2023-02-26T13:31:41;6.93;;;3.15;;
26391;SDS011;14572;43.120;1.178;2023-02-26T13:34:11;7.68;;;2.40;;
26391;SDS011;14572;43.120;1.178;2023-02-26T13:36:41;6.07;;;2.60;;
26391;SDS011;14572;43.120;1.178;2023-02-26T13:39:26;4.63;;;2.28;;
26391;SDS011;14572;43.120;1.178;2023-02-26T13:42:00;7.13;;;2.58;;
26391;SDS011;14572;43.120;1.178;2023-02-26T13:44:35;8.95;;;2.85;;
26391;SDS011;14572;43.120;1.178;2023-02-26T13:47:17;6.97;;;2.83;;
26391;SDS011;14572;43.120;1.178;2023-02-26T13:49:53;6.85;;;2.65;;
26391;SDS011;14572;43.120;1.178;2023-02-26T13:52:28;11.27;;;2.90;;
26391;SDS011;14572;43.120;1.178;2023-02-26T13:54:58;7.88;;;2.75;;
26391;SDS011;14572;43.120;1.178;2023-02-26T13:57:32;8.80;;;2.85;;
26391;SDS011;14572;43.120;1.178;2023-02-26T14:00:07;7.28;;;2.97;;
26391;SDS011;14572;43.120;1.178;2023-02-26T14:02:47;7.97;;;2.92;;
26391;SDS011;14572;43.120;1.178;2023-02-26T14:08:24;7.55;;;2.70;;
26391;SDS011;14572;43.120;1.178;2023-02-26T14:10:56;9.13;;;3.05;;
26391;SDS011;14572;43.120;1.178;2023-02-26T14:13:30;8.10;;;3.08;;
26391;SDS011;14572;43.120;1.178;2023-02-26T14:16:00;6.90;;;2.35;;
26391;SDS011;14572;43.120;1.178;2023-02-26T14:18:30;5.13;;;2.30;;
26391;SDS011;14572;43.120;1.178;2023-02-26T14:23:57;8.35;;;2.78;;
26391;SDS011;14572;43.120;1.178;2023-02-26T14:26:31;8.02;;;2.60;;
26391;SDS011;14572;43.120;1.178;2023-02-26T14:29:06;7.55;;;2.38;;
26391;SDS011;14572;43.120;1.178;2023-02-26T14:31:46;8.15;;;2.30;;
26391;SDS011;14572;43.120;1.178;2023-02-26T14:34:42;10.05;;;3.03;;
26391;SDS011;14572;43.120;1.178;2023-02-26T14:37:14;8.80;;;3.00;;
26391;SDS011;14572;43.120;1.178;2023-02-26T14:39:42;7.47;;;3.42;;
26391;SDS011;14572;43.120;1.178;2023-02-26T14:42:15;9.18;;;3.17;;
26391;SDS011;14572;43.120;1.178;2023-02-26T14:44:45;8.80;;;2.88;;
26391;SDS011;14572;43.120;1.178;2023-02-26T14:47:14;5.55;;;2.88;;
26391;SDS011;14572;43.120;1.178;2023-02-26T14:49:42;6.75;;;2.78;;
26391;SDS011;14572;43.120;1.178;2023-02-26T14:52:20;7.72;;;2.50;;
26391;SDS011;14572;43.120;1.178;2023-02-26T14:55:00;5.90;;;2.70;;
26391;SDS011;14572;43.120;1.178;2023-02-26T14:57:36;7.32;;;2.80;;
26391;SDS011;14572;43.120;1.178;2023-02-26T15:00:10;11.02;;;3.67;;
26391;SDS011;14572;43.120;1.178;2023-02-26T15:02:48;8.45;;;2.50;;
26391;SDS011;14572;43.120;1.178;2023-02-26T15:05:28;7.35;;;2.60;;
26391;SDS011;14572;43.120;1.178;2023-02-26T15:08:06;7.82;;;3.30;;
26391;SDS011;14572;43.120;1.178;2023-02-26T15:13:38;8.85;;;2.88;;
26391;SDS011;14572;43.120;1.178;2023-02-26T15:16:17;8.32;;;3.03;;
26391;SDS011;14572;43.120;1.178;2023-02-26T15:18:54;5.18;;;2.63;;
26391;SDS011;14572;43.120;1.178;2023-02-26T15:21:33;4.25;;;2.40;;
26391;SDS011;14572;43.120;1.178;2023-02-26T15:24:06;3.97;;;2.40;;
26391;SDS011;14572;43.120;1.178;2023-02-26T15:26:44;5.05;;;2.40;;
26391;SDS011;14572;43.120;1.178;2023-02-26T15:29:14;4.97;;;2.20;;
26391;SDS011;14572;43.120;1.178;2023-02-26T15:31:42;6.07;;;2.67;;
26391;SDS011;14572;43.120;1.178;2023-02-26T15:34:14;4.53;;;2.50;;
26391;SDS011;14572;43.120;1.178;2023-02-26T15:36:43;5.50;;;2.78;;
26391;SDS011;14572;43.120;1.178;2023-02-26T15:39:12;8.60;;;3.17;;
26391;SDS011;14572;43.120;1.178;2023-02-26T15:41:40;5.57;;;2.65;;
26391;SDS011;14572;43.120;1.178;2023-02-26T15:44:08;7.60;;;2.80;;
26391;SDS011;14572;43.120;1.178;2023-02-26T15:46:40;7.43;;;3.08;;
26391;SDS011;14572;43.120;1.178;2023-02-26T15:49:11;6.15;;;3.00;;
26391;SDS011;14572;43.120;1.178;2023-02-26T15:51:39;3.72;;;2.30;;
26391;SDS011;14572;43.120;1.178;2023-02-26T15:54:09;8.20;;;3.00;;
26391;SDS011;14572;43.120;1.178;2023-02-26T15:56:42;7.07;;;2.45;;
26391;SDS011;14572;43.120;1.178;2023-02-26T15:59:09;7.85;;;2.53;;
26391;SDS011;14572;43.120;1.178;2023-02-26T16:01:40;7.53;;;2.72;;
26391;SDS011;14572;43.120;1.178;2023-02-26T16:04:10;6.43;;;2.55;;
26391;SDS011;14572;43.120;1.178;2023-02-26T16:06:39;6.60;;;2.42;;
26391;SDS011;14572;43.120;1.178;2023-02-26T16:09:13;7.32;;;2.60;;
26391;SDS011;14572;43.120;1.178;2023-02-26T16:11:42;5.97;;;2.60;;
26391;SDS011;14572;43.120;1.178;2023-02-26T16:14:12;6.15;;;2.50;;
26391;SDS011;14572;43.120;1.178;2023-02-26T16:16:44;5.90;;;2.80;;
26391;SDS011;14572;43.120;1.178;2023-02-26T16:19:13;5.72;;;2.25;;
26391;SDS011;14572;43.120;1.178;2023-02-26T16:21:41;8.60;;;2.92;;
26391;SDS011;14572;43.120;1.178;2023-02-26T16:24:11;7.68;;;2.63;;
26391;SDS011;14572;43.120;1.178;2023-02-26T16:26:41;4.20;;;2.08;;
26391;SDS011;14572;43.120;1.178;2023-02-26T16:29:10;3.50;;;2.00;;
26391;SDS011;14572;43.120;1.178;2023-02-26T16:31:39;5.80;;;2.13;;
26391;SDS011;14572;43.120;1.178;2023-02-26T16:34:22;5.53;;;2.15;;
26391;SDS011;14572;43.120;1.178;2023-02-26T16:36:54;5.45;;;2.20;;
26391;SDS011;14572;43.120;1.178;2023-02-26T16:39:22;6.88;;;1.90;;
26391;SDS011;14572;43.120;1.178;2023-02-26T16:42:00;7.70;;;2.42;;
26391;SDS011;14572;43.120;1.178;2023-02-26T16:44:36;6.07;;;2.17;;
26391;SDS011;14572;43.120;1.178;2023-02-26T16:47:10;5.22;;;2.10;;
26391;SDS011;14572;43.120;1.178;2023-02-26T16:49:39;9.10;;;2.35;;
26391;SDS011;14572;43.120;1.178;2023-02-26T16:52:08;4.70;;;2.28;;
26391;SDS011;14572;43.120;1.178;2023-02-26T16:54:42;4.45;;;1.75;;
26391;SDS011;14572;43.120;1.178;2023-02-26T16:57:12;3.63;;;2.30;;
26391;SDS011;14572;43.120;1.178;2023-02-26T16:59:42;5.55;;;2.25;;
26391;SDS011;14572;43.120;1.178;2023-02-26T17:02:14;3.55;;;2.28;;
26391;SDS011;14572;43.120;1.178;2023-02-26T17:04:46;6.50;;;2.45;;
26391;SDS011;14572;43.120;1.178;2023-02-26T17:07:16;7.60;;;2.50;;
26391;SDS011;14572;43.120;1.178;2023-02-26T17:09:49;3.53;;;2.15;;
26391;SDS011;14572;43.120;1.178;2023-02-26T17:12:19;5.25;;;2.10;;
26391;SDS011;14572;43.120;1.178;2023-02-26T17:14:51;4.35;;;2.08;;
26391;SDS011;14572;43.120;1.178;2023-02-26T17:17:20;3.58;;;1.80;;
26391;SDS011;14572;43.120;1.178;2023-02-26T17:19:49;2.67;;;1.65;;
26391;SDS011;14572;43.120;1.178;2023-02-26T17:22:18;5.85;;;2.10;;
26391;SDS011;14572;43.120;1.178;2023-02-26T17:24:48;5.40;;;1.90;;
26391;SDS011;14572;43.120;1.178;2023-02-26T17:27:19;4.10;;;1.55;;
26391;SDS011;14572;43.120;1.178;2023-02-26T17:29:49;2.58;;;1.40;;
26391;SDS011;14572;43.120;1.178;2023-02-26T17:32:18;3.05;;;1.42;;
26391;SDS011;14572;43.120;1.178;2023-02-26T17:34:46;3.28;;;1.50;;
26391;SDS011;14572;43.120;1.178;2023-02-26T17:37:16;3.60;;;1.48;;
26391;SDS011;14572;43.120;1.178;2023-02-26T17:39:43;3.90;;;2.13;;
26391;SDS011;14572;43.120;1.178;2023-02-26T17:42:11;2.72;;;1.20;;
26391;SDS011;14572;43.120;1.178;2023-02-26T17:44:39;2.97;;;1.20;;
26391;SDS011;14572;43.120;1.178;2023-02-26T17:47:08;1.55;;;1.20;;
26391;SDS011;14572;43.120;1.178;2023-02-26T17:49:36;4.32;;;1.25;;
26391;SDS011;14572;43.120;1.178;2023-02-26T17:52:05;2.80;;;1.08;;
26391;SDS011;14572;43.120;1.178;2023-02-26T17:54:32;6.78;;;1.60;;
26391;SDS011;14572;43.120;1.178;2023-02-26T17:56:59;4.88;;;1.23;;
26391;SDS011;14572;43.120;1.178;2023-02-26T17:59:27;2.28;;;1.25;;
26391;SDS011;14572;43.120;1.178;2023-02-26T18:01:57;2.30;;;1.05;;
26391;SDS011;14572;43.120;1.178;2023-02-26T18:04:25;1.42;;;1.08;;
26391;SDS011;14572;43.120;1.178;2023-02-26T18:06:53;2.50;;;1.20;;
26391;SDS011;14572;43.120;1.178;2023-02-26T18:09:22;2.05;;;1.30;;
26391;SDS011;14572;43.120;1.178;2023-02-26T18:11:49;4.45;;;1.15;;
26391;SDS011;14572;43.120;1.178;2023-02-26T18:14:16;4.75;;;1.77;;
26391;SDS011;14572;43.120;1.178;2023-02-26T18:16:43;7.03;;;3.95;;
26391;SDS011;14572;43.120;1.178;2023-02-26T18:19:11;6.55;;;2.53;;
26391;SDS011;14572;43.120;1.178;2023-02-26T18:21:40;2.30;;;1.30;;
26391;SDS011;14572;43.120;1.178;2023-02-26T18:24:07;4.43;;;2.65;;
26391;SDS011;14572;43.120;1.178;2023-02-26T18:26:37;3.85;;;1.55;;
26391;SDS011;14572;43.120;1.178;2023-02-26T18:29:08;2.78;;;1.20;;
26391;SDS011;14572;43.120;1.178;2023-02-26T18:31:35;5.07;;;1.50;;
26391;SDS011;14572;43.120;1.178;2023-02-26T18:34:02;3.90;;;1.48;;
26391;SDS011;14572;43.120;1.178;2023-02-26T18:36:31;4.05;;;1.95;;
26391;SDS011;14572;43.120;1.178;2023-02-26T18:39:04;3.42;;;1.30;;
26391;SDS011;14572;43.120;1.178;2023-02-26T18:41:33;6.93;;;4.13;;
26391;SDS011;14572;43.120;1.178;2023-02-26T18:44:02;4.75;;;2.50;;
26391;SDS011;14572;43.120;1.178;2023-02-26T18:46:29;7.60;;;2.60;;
26391;SDS011;14572;43.120;1.178;2023-02-26T18:48:59;5.82;;;2.42;;
26391;SDS011;14572;43.120;1.178;2023-02-26T18:51:26;3.15;;;1.30;;
26391;SDS011;14572;43.120;1.178;2023-02-26T18:53:54;3.05;;;1.45;;
26391;SDS011;14572;43.120;1.178;2023-02-26T18:56:21;1.55;;;1.25;;
26391;SDS011;14572;43.120;1.178;2023-02-26T18:58:48;3.22;;;1.17;;
26391;SDS011;14572;43.120;1.178;2023-02-26T19:01:17;2.72;;;1.40;;
26391;SDS011;14572;43.120;1.178;2023-02-26T19:03:44;3.92;;;1.33;;
26391;SDS011;14572;43.120;1.178;2023-02-26T19:06:11;2.90;;;1.45;;
26391;SDS011;14572;43.120;1.178;2023-02-26T19:08:38;3.75;;;1.88;;
26391;SDS011;14572;43.120;1.178;2023-02-26T19:11:06;2.75;;;1.50;;
26391;SDS011;14572;43.120;1.178;2023-02-26T19:13:33;3.90;;;1.73;;
26391;SDS011;14572;43.120;1.178;2023-02-26T19:16:00;5.68;;;2.63;;
26391;SDS011;14572;43.120;1.178;2023-02-26T19:18:29;3.20;;;1.63;;
26391;SDS011;14572;43.120;1.178;2023-02-26T19:20:56;3.83;;;1.67;;
26391;SDS011;14572;43.120;1.178;2023-02-26T19:23:28;3.63;;;1.73;;
26391;SDS011;14572;43.120;1.178;2023-02-26T19:25:56;4.53;;;1.50;;
26391;SDS011;14572;43.120;1.178;2023-02-26T19:28:23;3.58;;;1.70;;
26391;SDS011;14572;43.120;1.178;2023-02-26T19:30:52;6.47;;;1.57;;
26391;SDS011;14572;43.120;1.178;2023-02-26T19:33:19;4.28;;;1.67;;
26391;SDS011;14572;43.120;1.178;2023-02-26T19:35:49;3.10;;;2.00;;
26391;SDS011;14572;43.120;1.178;2023-02-26T19:38:16;3.03;;;1.73;;
26391;SDS011;14572;43.120;1.178;2023-02-26T19:40:43;3.27;;;1.50;;
26391;SDS011;14572;43.120;1.178;2023-02-26T19:43:10;2.53;;;1.20;;
26391;SDS011;14572;43.120;1.178;2023-02-26T19:45:37;5.07;;;1.53;;
26391;SDS011;14572;43.120;1.178;2023-02-26T19:48:05;1.88;;;1.10;;
